<?xml version="1.0" encoding="UTF-8"?>
<gpx
 version="1.0"
creator="GPSBabel - http://www.gpsbabel.org"
xmlns:xsi="http://www.w3.org/2001/XMLSchema-instance"
xmlns="http://www.topografix.com/GPX/1/0"
xsi:schemaLocation="http://www.topografix.com/GPX/1/1 http://www.topografix.com/GPX/1/1/gpx.xsd">
<time>2010-02-09T02:01:38Z</time>
<bounds minlat="51.939268700" minlon="7.630760200" maxlat="52.028927400" maxlon="7.768724800"/>
<trk>
  <name>1MaiWestbevern</name>
<trkseg>
<cmt>extensions = DarkRed</cmt>
<trkpt lat="51.956151400" lon="7.634018300">
  <ele>57.000000</ele>
<time>2009-04-12T13:40:29Z</time>
</trkpt>
<trkpt lat="51.955996200" lon="7.634375000">
  <ele>57.000000</ele>
<time>2009-04-12T13:42:16Z</time>
</trkpt>
<trkpt lat="51.956090900" lon="7.634538200">
  <ele>61.000000</ele>
<time>2009-04-12T13:42:22Z</time>
</trkpt>
<trkpt lat="51.955894400" lon="7.637277600">
  <ele>55.000000</ele>
<time>2009-04-12T13:43:51Z</time>
</trkpt>
<trkpt lat="51.955910200" lon="7.637385000">
  <ele>55.000000</ele>
<time>2009-04-12T13:43:54Z</time>
</trkpt>
<trkpt lat="51.956059900" lon="7.637461000">
  <ele>58.000000</ele>
<time>2009-04-12T13:43:59Z</time>
</trkpt>
<trkpt lat="51.956841600" lon="7.637648300">
  <ele>60.000000</ele>
<time>2009-04-12T13:44:18Z</time>
</trkpt>
<trkpt lat="51.957048900" lon="7.637865900">
  <ele>64.000000</ele>
<time>2009-04-12T13:44:24Z</time>
</trkpt>
<trkpt lat="51.957187700" lon="7.638086500">
  <ele>66.000000</ele>
<time>2009-04-12T13:44:30Z</time>
</trkpt>
<trkpt lat="51.957316200" lon="7.638389600">
  <ele>63.000000</ele>
<time>2009-04-12T13:44:35Z</time>
</trkpt>
<trkpt lat="51.954670500" lon="7.644828500">
  <ele>60.000000</ele>
<time>2009-04-12T13:45:52Z</time>
</trkpt>
<trkpt lat="51.951015200" lon="7.651241200">
  <ele>53.000000</ele>
<time>2009-04-12T13:47:27Z</time>
</trkpt>
<trkpt lat="51.950862900" lon="7.651403800">
  <ele>52.000000</ele>
<time>2009-04-12T13:47:30Z</time>
</trkpt>
<trkpt lat="51.949916500" lon="7.651840800">
  <ele>46.000000</ele>
<time>2009-04-12T13:47:44Z</time>
</trkpt>
<trkpt lat="51.949125000" lon="7.652502100">
  <ele>46.000000</ele>
<time>2009-04-12T13:47:57Z</time>
</trkpt>
<trkpt lat="51.948382900" lon="7.653667300">
  <ele>47.000000</ele>
<time>2009-04-12T13:48:13Z</time>
</trkpt>
<trkpt lat="51.946275400" lon="7.655765200">
  <ele>47.000000</ele>
<time>2009-04-12T13:49:08Z</time>
</trkpt>
<trkpt lat="51.944227700" lon="7.656517300">
  <ele>41.000000</ele>
<time>2009-04-12T13:49:44Z</time>
</trkpt>
<trkpt lat="51.944127900" lon="7.658559000">
  <ele>43.000000</ele>
<time>2009-04-12T13:50:07Z</time>
</trkpt>
<trkpt lat="51.944221600" lon="7.659101700">
  <ele>44.000000</ele>
<time>2009-04-12T13:50:13Z</time>
</trkpt>
<trkpt lat="51.945815700" lon="7.661374500">
  <ele>41.000000</ele>
<time>2009-04-12T13:50:47Z</time>
</trkpt>
<trkpt lat="51.945922400" lon="7.661971700">
  <ele>40.000000</ele>
<time>2009-04-12T13:50:53Z</time>
</trkpt>
<trkpt lat="51.945844400" lon="7.666091200">
  <ele>53.000000</ele>
<time>2009-04-12T13:51:33Z</time>
</trkpt>
<trkpt lat="51.945517300" lon="7.666661600">
  <ele>46.000000</ele>
<time>2009-04-12T13:51:41Z</time>
</trkpt>
<trkpt lat="51.944951600" lon="7.666855700">
  <ele>46.000000</ele>
<time>2009-04-12T13:51:51Z</time>
</trkpt>
<trkpt lat="51.944698000" lon="7.667220600">
  <ele>48.000000</ele>
<time>2009-04-12T13:51:59Z</time>
</trkpt>
<trkpt lat="51.944724400" lon="7.667359000">
  <ele>48.000000</ele>
<time>2009-04-12T13:52:01Z</time>
</trkpt>
<trkpt lat="51.944984500" lon="7.670125400">
  <ele>41.000000</ele>
<time>2009-04-12T13:52:33Z</time>
</trkpt>
<trkpt lat="51.944957200" lon="7.670770100">
  <ele>40.000000</ele>
<time>2009-04-12T13:52:41Z</time>
</trkpt>
<trkpt lat="51.944741100" lon="7.671466100">
  <ele>41.000000</ele>
<time>2009-04-12T13:52:50Z</time>
</trkpt>
<trkpt lat="51.944518800" lon="7.671515500">
  <ele>40.000000</ele>
<time>2009-04-12T13:52:56Z</time>
</trkpt>
<trkpt lat="51.944073500" lon="7.671202800">
  <ele>39.000000</ele>
<time>2009-04-12T13:53:04Z</time>
</trkpt>
<trkpt lat="51.943819000" lon="7.671355600">
  <ele>41.000000</ele>
<time>2009-04-12T13:53:09Z</time>
</trkpt>
<trkpt lat="51.942731600" lon="7.674373900">
  <ele>40.000000</ele>
<time>2009-04-12T13:53:46Z</time>
</trkpt>
<trkpt lat="51.942565800" lon="7.674422900">
  <ele>40.000000</ele>
<time>2009-04-12T13:53:50Z</time>
</trkpt>
<trkpt lat="51.941752500" lon="7.673853900">
  <ele>42.000000</ele>
<time>2009-04-12T13:54:07Z</time>
</trkpt>
<trkpt lat="51.940366400" lon="7.673398900">
  <ele>45.000000</ele>
<time>2009-04-12T13:54:32Z</time>
</trkpt>
<trkpt lat="51.939913400" lon="7.673363000">
  <ele>44.000000</ele>
<time>2009-04-12T13:54:41Z</time>
</trkpt>
<trkpt lat="51.939870900" lon="7.673813700">
  <ele>47.000000</ele>
<time>2009-04-12T13:54:46Z</time>
</trkpt>
<trkpt lat="51.939992700" lon="7.676985500">
  <ele>48.000000</ele>
<time>2009-04-12T13:55:14Z</time>
</trkpt>
<trkpt lat="51.940098200" lon="7.677793200">
  <ele>43.000000</ele>
<time>2009-04-12T13:55:22Z</time>
</trkpt>
<trkpt lat="51.940100500" lon="7.678736900">
  <ele>38.000000</ele>
<time>2009-04-12T13:55:33Z</time>
</trkpt>
<trkpt lat="51.939996900" lon="7.678991100">
  <ele>45.000000</ele>
<time>2009-04-12T13:55:37Z</time>
</trkpt>
<trkpt lat="51.939390400" lon="7.679721900">
  <ele>43.000000</ele>
<time>2009-04-12T13:55:52Z</time>
</trkpt>
<trkpt lat="51.939316400" lon="7.680177900">
  <ele>45.000000</ele>
<time>2009-04-12T13:55:58Z</time>
</trkpt>
<trkpt lat="51.939356300" lon="7.680354600">
  <ele>46.000000</ele>
<time>2009-04-12T13:56:00Z</time>
</trkpt>
<trkpt lat="51.939385800" lon="7.680782100">
  <ele>46.000000</ele>
<time>2009-04-12T13:56:05Z</time>
</trkpt>
<trkpt lat="51.939348400" lon="7.681033900">
  <ele>44.000000</ele>
<time>2009-04-12T13:56:08Z</time>
</trkpt>
<trkpt lat="51.939268700" lon="7.682882600">
  <ele>46.000000</ele>
<time>2009-04-12T13:56:28Z</time>
</trkpt>
<trkpt lat="51.939285400" lon="7.683147700">
  <ele>47.000000</ele>
<time>2009-04-12T13:56:31Z</time>
</trkpt>
<trkpt lat="51.939510800" lon="7.684472200">
  <ele>47.000000</ele>
<time>2009-04-12T13:56:46Z</time>
</trkpt>
<trkpt lat="51.939604700" lon="7.684598700">
  <ele>45.000000</ele>
<time>2009-04-12T13:56:50Z</time>
</trkpt>
<trkpt lat="51.940811400" lon="7.683884300">
  <ele>52.000000</ele>
<time>2009-04-12T13:57:15Z</time>
</trkpt>
<trkpt lat="51.941367000" lon="7.683816200">
  <ele>52.000000</ele>
<time>2009-04-12T13:57:27Z</time>
</trkpt>
<trkpt lat="51.941592800" lon="7.684110100">
  <ele>49.000000</ele>
<time>2009-04-12T13:57:34Z</time>
</trkpt>
<trkpt lat="51.942231300" lon="7.688040600">
  <ele>39.000000</ele>
<time>2009-04-12T13:58:23Z</time>
</trkpt>
<trkpt lat="51.942401100" lon="7.688020900">
  <ele>41.000000</ele>
<time>2009-04-12T13:58:30Z</time>
</trkpt>
<trkpt lat="51.942593000" lon="7.687715200">
  <ele>40.000000</ele>
<time>2009-04-12T14:00:12Z</time>
</trkpt>
<trkpt lat="51.943017600" lon="7.687264400">
  <ele>39.000000</ele>
<time>2009-04-12T14:00:24Z</time>
</trkpt>
<trkpt lat="51.943215000" lon="7.687205600">
  <ele>40.000000</ele>
<time>2009-04-12T14:00:29Z</time>
</trkpt>
<trkpt lat="51.943378700" lon="7.687244100">
  <ele>40.000000</ele>
<time>2009-04-12T14:00:33Z</time>
</trkpt>
<trkpt lat="51.943553900" lon="7.687346300">
  <ele>40.000000</ele>
<time>2009-04-12T14:00:37Z</time>
</trkpt>
<trkpt lat="51.944506000" lon="7.688441000">
  <ele>40.000000</ele>
<time>2009-04-12T14:00:58Z</time>
</trkpt>
<trkpt lat="51.944603900" lon="7.688491500">
  <ele>40.000000</ele>
<time>2009-04-12T14:01:00Z</time>
</trkpt>
<trkpt lat="51.944824900" lon="7.688501900">
  <ele>40.000000</ele>
<time>2009-04-12T14:01:08Z</time>
</trkpt>
<trkpt lat="51.945020200" lon="7.688425500">
  <ele>41.000000</ele>
<time>2009-04-12T14:01:27Z</time>
</trkpt>
<trkpt lat="51.946083000" lon="7.687451000">
  <ele>38.000000</ele>
<time>2009-04-12T14:01:51Z</time>
</trkpt>
<trkpt lat="51.946372200" lon="7.687366800">
  <ele>38.000000</ele>
<time>2009-04-12T14:01:57Z</time>
</trkpt>
<trkpt lat="51.946715100" lon="7.687592100">
  <ele>40.000000</ele>
<time>2009-04-12T14:02:08Z</time>
</trkpt>
<trkpt lat="51.946801400" lon="7.687548900">
  <ele>39.000000</ele>
<time>2009-04-12T14:02:10Z</time>
</trkpt>
<trkpt lat="51.946940700" lon="7.687386200">
  <ele>40.000000</ele>
<time>2009-04-12T14:02:14Z</time>
</trkpt>
<trkpt lat="51.947371900" lon="7.685887500">
  <ele>42.000000</ele>
<time>2009-04-12T14:02:39Z</time>
</trkpt>
<trkpt lat="51.947385700" lon="7.685788700">
  <ele>42.000000</ele>
<time>2009-04-12T14:02:42Z</time>
</trkpt>
<trkpt lat="51.947550100" lon="7.685720200">
  <ele>43.000000</ele>
<time>2009-04-12T14:02:50Z</time>
</trkpt>
<trkpt lat="51.947638200" lon="7.687498100">
  <ele>43.000000</ele>
<time>2009-04-12T14:03:14Z</time>
</trkpt>
<trkpt lat="51.948075200" lon="7.688255700">
  <ele>44.000000</ele>
<time>2009-04-12T14:03:32Z</time>
</trkpt>
<trkpt lat="51.948350900" lon="7.688585100">
  <ele>42.000000</ele>
<time>2009-04-12T14:03:42Z</time>
</trkpt>
<trkpt lat="51.948692900" lon="7.688769700">
  <ele>41.000000</ele>
<time>2009-04-12T14:03:52Z</time>
</trkpt>
<trkpt lat="51.948924600" lon="7.688958700">
  <ele>47.000000</ele>
<time>2009-04-12T14:04:00Z</time>
</trkpt>
<trkpt lat="51.949181000" lon="7.689511300">
  <ele>48.000000</ele>
<time>2009-04-12T14:04:11Z</time>
</trkpt>
<trkpt lat="51.949359800" lon="7.690271400">
  <ele>52.000000</ele>
<time>2009-04-12T14:04:21Z</time>
</trkpt>
<trkpt lat="51.949398500" lon="7.690819300">
  <ele>53.000000</ele>
<time>2009-04-12T14:04:28Z</time>
</trkpt>
<trkpt lat="51.949382200" lon="7.691131900">
  <ele>53.000000</ele>
<time>2009-04-12T14:04:32Z</time>
</trkpt>
<trkpt lat="51.949480800" lon="7.691687400">
  <ele>51.000000</ele>
<time>2009-04-12T14:04:42Z</time>
</trkpt>
<trkpt lat="51.949968800" lon="7.692814800">
  <ele>50.000000</ele>
<time>2009-04-12T14:05:01Z</time>
</trkpt>
<trkpt lat="51.950299300" lon="7.694420600">
  <ele>66.000000</ele>
<time>2009-04-12T14:05:21Z</time>
</trkpt>
<trkpt lat="51.950147000" lon="7.695787300">
  <ele>48.000000</ele>
<time>2009-04-12T14:05:39Z</time>
</trkpt>
<trkpt lat="51.949914600" lon="7.696032600">
  <ele>46.000000</ele>
<time>2009-04-12T14:05:44Z</time>
</trkpt>
<trkpt lat="51.949760600" lon="7.696132700">
  <ele>44.000000</ele>
<time>2009-04-12T14:05:47Z</time>
</trkpt>
<trkpt lat="51.949567900" lon="7.696316000">
  <ele>41.000000</ele>
<time>2009-04-12T14:05:51Z</time>
</trkpt>
<trkpt lat="51.949440500" lon="7.696939000">
  <ele>41.000000</ele>
<time>2009-04-12T14:05:58Z</time>
</trkpt>
<trkpt lat="51.950348800" lon="7.698562500">
  <ele>36.000000</ele>
<time>2009-04-12T14:06:21Z</time>
</trkpt>
<trkpt lat="51.950667700" lon="7.699359300">
  <ele>34.000000</ele>
<time>2009-04-12T14:06:30Z</time>
</trkpt>
<trkpt lat="51.950753900" lon="7.699512200">
  <ele>33.000000</ele>
<time>2009-04-12T14:06:32Z</time>
</trkpt>
<trkpt lat="51.951022200" lon="7.699780500">
  <ele>34.000000</ele>
<time>2009-04-12T14:06:37Z</time>
</trkpt>
<trkpt lat="51.951369300" lon="7.699881300">
  <ele>33.000000</ele>
<time>2009-04-12T14:06:43Z</time>
</trkpt>
<trkpt lat="51.952124200" lon="7.699631300">
  <ele>41.000000</ele>
<time>2009-04-12T14:06:57Z</time>
</trkpt>
<trkpt lat="51.952464400" lon="7.699631800">
  <ele>39.000000</ele>
<time>2009-04-12T14:07:04Z</time>
</trkpt>
<trkpt lat="51.953349500" lon="7.699978500">
  <ele>39.000000</ele>
<time>2009-04-12T14:07:20Z</time>
</trkpt>
<trkpt lat="51.953523400" lon="7.700097800">
  <ele>39.000000</ele>
<time>2009-04-12T14:07:23Z</time>
</trkpt>
<trkpt lat="51.953880200" lon="7.700229100">
  <ele>39.000000</ele>
<time>2009-04-12T14:07:30Z</time>
</trkpt>
<trkpt lat="51.954047800" lon="7.700363200">
  <ele>44.000000</ele>
<time>2009-04-12T14:07:40Z</time>
</trkpt>
<trkpt lat="51.954152000" lon="7.700399600">
  <ele>45.000000</ele>
<time>2009-04-12T14:07:56Z</time>
</trkpt>
<trkpt lat="51.954276900" lon="7.700488900">
  <ele>44.000000</ele>
<time>2009-04-12T14:08:05Z</time>
</trkpt>
<trkpt lat="51.955522300" lon="7.703739000">
  <ele>39.000000</ele>
<time>2009-04-12T14:08:57Z</time>
</trkpt>
<trkpt lat="51.955889400" lon="7.704047900">
  <ele>39.000000</ele>
<time>2009-04-12T14:09:05Z</time>
</trkpt>
<trkpt lat="51.955951000" lon="7.704013700">
  <ele>40.000000</ele>
<time>2009-04-12T14:09:06Z</time>
</trkpt>
<trkpt lat="51.956644700" lon="7.703385600">
  <ele>42.000000</ele>
<time>2009-04-12T14:09:21Z</time>
</trkpt>
<trkpt lat="51.957356300" lon="7.703026200">
  <ele>45.000000</ele>
<time>2009-04-12T14:09:35Z</time>
</trkpt>
<trkpt lat="51.957629600" lon="7.703004300">
  <ele>50.000000</ele>
<time>2009-04-12T14:09:42Z</time>
</trkpt>
<trkpt lat="51.957929900" lon="7.703127900">
  <ele>54.000000</ele>
<time>2009-04-12T14:09:48Z</time>
</trkpt>
<trkpt lat="51.959574600" lon="7.704583100">
  <ele>59.000000</ele>
<time>2009-04-12T14:10:26Z</time>
</trkpt>
<trkpt lat="51.960027700" lon="7.704733300">
  <ele>56.000000</ele>
<time>2009-04-12T14:10:35Z</time>
</trkpt>
<trkpt lat="51.960253500" lon="7.704916100">
  <ele>53.000000</ele>
<time>2009-04-12T14:10:41Z</time>
</trkpt>
<trkpt lat="51.960685500" lon="7.705051800">
  <ele>50.000000</ele>
<time>2009-04-12T14:10:51Z</time>
</trkpt>
<trkpt lat="51.960984800" lon="7.704924800">
  <ele>51.000000</ele>
<time>2009-04-12T14:10:56Z</time>
</trkpt>
<trkpt lat="51.961677400" lon="7.704248800">
  <ele>47.000000</ele>
<time>2009-04-12T14:11:13Z</time>
</trkpt>
<trkpt lat="51.961922900" lon="7.703888000">
  <ele>42.000000</ele>
<time>2009-04-12T14:11:18Z</time>
</trkpt>
<trkpt lat="51.962141800" lon="7.703194400">
  <ele>42.000000</ele>
<time>2009-04-12T14:11:27Z</time>
</trkpt>
<trkpt lat="51.962514900" lon="7.702568400">
  <ele>45.000000</ele>
<time>2009-04-12T14:11:37Z</time>
</trkpt>
<trkpt lat="51.962661800" lon="7.701911100">
  <ele>43.000000</ele>
<time>2009-04-12T14:11:46Z</time>
</trkpt>
<trkpt lat="51.963080700" lon="7.701350700">
  <ele>41.000000</ele>
<time>2009-04-12T14:12:01Z</time>
</trkpt>
<trkpt lat="51.963357200" lon="7.701422500">
  <ele>39.000000</ele>
<time>2009-04-12T14:12:11Z</time>
</trkpt>
<trkpt lat="51.963527600" lon="7.701838100">
  <ele>45.000000</ele>
<time>2009-04-12T14:34:25Z</time>
</trkpt>
<trkpt lat="51.963439900" lon="7.702038800">
  <ele>45.000000</ele>
<time>2009-04-12T14:34:31Z</time>
</trkpt>
<trkpt lat="51.963215900" lon="7.702208900">
  <ele>43.000000</ele>
<time>2009-04-12T14:34:50Z</time>
</trkpt>
<trkpt lat="51.963083700" lon="7.702597200">
  <ele>42.000000</ele>
<time>2009-04-12T14:35:51Z</time>
</trkpt>
<trkpt lat="51.963008200" lon="7.703112100">
  <ele>45.000000</ele>
<time>2009-04-12T14:36:03Z</time>
</trkpt>
<trkpt lat="51.963060500" lon="7.703672400">
  <ele>41.000000</ele>
<time>2009-04-12T14:36:10Z</time>
</trkpt>
<trkpt lat="51.963049100" lon="7.704257800">
  <ele>39.000000</ele>
<time>2009-04-12T14:37:15Z</time>
</trkpt>
<trkpt lat="51.963182500" lon="7.704422000">
  <ele>40.000000</ele>
<time>2009-04-12T14:37:56Z</time>
</trkpt>
<trkpt lat="51.963547300" lon="7.704489400">
  <ele>38.000000</ele>
<time>2009-04-12T14:38:12Z</time>
</trkpt>
<trkpt lat="51.964042600" lon="7.704776700">
  <ele>35.000000</ele>
<time>2009-04-12T14:38:26Z</time>
</trkpt>
<trkpt lat="51.964122500" lon="7.704865600">
  <ele>36.000000</ele>
<time>2009-04-12T14:38:28Z</time>
</trkpt>
<trkpt lat="51.964195600" lon="7.705157700">
  <ele>37.000000</ele>
<time>2009-04-12T14:38:32Z</time>
</trkpt>
<trkpt lat="51.964189900" lon="7.705645200">
  <ele>39.000000</ele>
<time>2009-04-12T14:38:39Z</time>
</trkpt>
<trkpt lat="51.964638400" lon="7.705920400">
  <ele>41.000000</ele>
<time>2009-04-12T14:38:55Z</time>
</trkpt>
<trkpt lat="51.965167200" lon="7.705971700">
  <ele>40.000000</ele>
<time>2009-04-12T14:39:11Z</time>
</trkpt>
<trkpt lat="51.965568600" lon="7.705684600">
  <ele>40.000000</ele>
<time>2009-04-12T14:39:22Z</time>
</trkpt>
<trkpt lat="51.965720600" lon="7.705730300">
  <ele>41.000000</ele>
<time>2009-04-12T14:39:26Z</time>
</trkpt>
<trkpt lat="51.965799800" lon="7.705804400">
  <ele>41.000000</ele>
<time>2009-04-12T14:39:29Z</time>
</trkpt>
<trkpt lat="51.965897900" lon="7.705748400">
  <ele>40.000000</ele>
<time>2009-04-12T14:39:33Z</time>
</trkpt>
<trkpt lat="51.965941800" lon="7.705520600">
  <ele>38.000000</ele>
<time>2009-04-12T14:39:37Z</time>
</trkpt>
<trkpt lat="51.966103000" lon="7.705133300">
  <ele>35.000000</ele>
<time>2009-04-12T14:39:43Z</time>
</trkpt>
<trkpt lat="51.966185600" lon="7.704769500">
  <ele>37.000000</ele>
<time>2009-04-12T14:39:50Z</time>
</trkpt>
<trkpt lat="51.966300200" lon="7.704697100">
  <ele>37.000000</ele>
<time>2009-04-12T14:39:53Z</time>
</trkpt>
<trkpt lat="51.966420500" lon="7.704679500">
  <ele>37.000000</ele>
<time>2009-04-12T14:39:56Z</time>
</trkpt>
<trkpt lat="51.966818500" lon="7.705063800">
  <ele>36.000000</ele>
<time>2009-04-12T14:40:04Z</time>
</trkpt>
<trkpt lat="51.967033200" lon="7.705198900">
  <ele>37.000000</ele>
<time>2009-04-12T14:40:08Z</time>
</trkpt>
<trkpt lat="51.967267200" lon="7.705115800">
  <ele>37.000000</ele>
<time>2009-04-12T14:40:14Z</time>
</trkpt>
<trkpt lat="51.967939900" lon="7.703714100">
  <ele>36.000000</ele>
<time>2009-04-12T14:40:34Z</time>
</trkpt>
<trkpt lat="51.968169700" lon="7.703454300">
  <ele>36.000000</ele>
<time>2009-04-12T14:40:40Z</time>
</trkpt>
<trkpt lat="51.968745800" lon="7.703390200">
  <ele>36.000000</ele>
<time>2009-04-12T14:40:51Z</time>
</trkpt>
<trkpt lat="51.968959000" lon="7.703662000">
  <ele>37.000000</ele>
<time>2009-04-12T14:40:58Z</time>
</trkpt>
<trkpt lat="51.969020400" lon="7.703702900">
  <ele>37.000000</ele>
<time>2009-04-12T14:41:00Z</time>
</trkpt>
<trkpt lat="51.969137700" lon="7.703731900">
  <ele>37.000000</ele>
<time>2009-04-12T14:41:03Z</time>
</trkpt>
<trkpt lat="51.969473500" lon="7.703675600">
  <ele>37.000000</ele>
<time>2009-04-12T14:41:11Z</time>
</trkpt>
<trkpt lat="51.969869200" lon="7.703827700">
  <ele>40.000000</ele>
<time>2009-04-12T14:41:20Z</time>
</trkpt>
<trkpt lat="51.970223000" lon="7.704087300">
  <ele>42.000000</ele>
<time>2009-04-12T14:41:29Z</time>
</trkpt>
<trkpt lat="51.970341600" lon="7.704046600">
  <ele>41.000000</ele>
<time>2009-04-12T14:41:33Z</time>
</trkpt>
<trkpt lat="51.972548200" lon="7.702600600">
  <ele>36.000000</ele>
<time>2009-04-12T14:43:01Z</time>
</trkpt>
<trkpt lat="51.972644200" lon="7.702600700">
  <ele>35.000000</ele>
<time>2009-04-12T14:43:03Z</time>
</trkpt>
<trkpt lat="51.972792700" lon="7.702356000">
  <ele>37.000000</ele>
<time>2009-04-12T14:43:09Z</time>
</trkpt>
<trkpt lat="51.973339300" lon="7.700850300">
  <ele>36.000000</ele>
<time>2009-04-12T14:43:34Z</time>
</trkpt>
<trkpt lat="51.973569800" lon="7.700518900">
  <ele>35.000000</ele>
<time>2009-04-12T14:43:42Z</time>
</trkpt>
<trkpt lat="51.973626900" lon="7.700608600">
  <ele>34.000000</ele>
<time>2009-04-12T14:43:44Z</time>
</trkpt>
<trkpt lat="51.973820300" lon="7.701050100">
  <ele>34.000000</ele>
<time>2009-04-12T14:43:51Z</time>
</trkpt>
<trkpt lat="51.973986700" lon="7.701215200">
  <ele>34.000000</ele>
<time>2009-04-12T14:43:56Z</time>
</trkpt>
<trkpt lat="51.974194200" lon="7.701208800">
  <ele>34.000000</ele>
<time>2009-04-12T14:44:03Z</time>
</trkpt>
<trkpt lat="51.974298700" lon="7.700918000">
  <ele>36.000000</ele>
<time>2009-04-12T14:44:14Z</time>
</trkpt>
<trkpt lat="51.974247900" lon="7.700494600">
  <ele>38.000000</ele>
<time>2009-04-12T14:44:23Z</time>
</trkpt>
<trkpt lat="51.974071200" lon="7.700064800">
  <ele>38.000000</ele>
<time>2009-04-12T14:44:31Z</time>
</trkpt>
<trkpt lat="51.974063900" lon="7.699496500">
  <ele>39.000000</ele>
<time>2009-04-12T14:44:38Z</time>
</trkpt>
<trkpt lat="51.974117200" lon="7.699374700">
  <ele>40.000000</ele>
<time>2009-04-12T14:44:40Z</time>
</trkpt>
<trkpt lat="51.974183100" lon="7.699327300">
  <ele>40.000000</ele>
<time>2009-04-12T14:44:42Z</time>
</trkpt>
<trkpt lat="51.974407000" lon="7.699354600">
  <ele>42.000000</ele>
<time>2009-04-12T14:44:48Z</time>
</trkpt>
<trkpt lat="51.974442200" lon="7.699868200">
  <ele>46.000000</ele>
<time>2009-04-12T14:44:59Z</time>
</trkpt>
<trkpt lat="51.974568300" lon="7.700216400">
  <ele>48.000000</ele>
<time>2009-04-12T14:45:11Z</time>
</trkpt>
<trkpt lat="51.974632200" lon="7.700250400">
  <ele>48.000000</ele>
<time>2009-04-12T14:45:15Z</time>
</trkpt>
<trkpt lat="51.975283700" lon="7.700025500">
  <ele>45.000000</ele>
<time>2009-04-12T14:45:36Z</time>
</trkpt>
<trkpt lat="51.975976900" lon="7.700395000">
  <ele>41.000000</ele>
<time>2009-04-12T14:45:54Z</time>
</trkpt>
<trkpt lat="51.976335000" lon="7.700698200">
  <ele>40.000000</ele>
<time>2009-04-12T14:46:05Z</time>
</trkpt>
<trkpt lat="51.977680500" lon="7.701327300">
  <ele>37.000000</ele>
<time>2009-04-12T14:46:36Z</time>
</trkpt>
<trkpt lat="51.977932500" lon="7.701350600">
  <ele>38.000000</ele>
<time>2009-04-12T14:46:42Z</time>
</trkpt>
<trkpt lat="51.978847400" lon="7.700809000">
  <ele>47.000000</ele>
<time>2009-04-12T14:47:00Z</time>
</trkpt>
<trkpt lat="51.979949200" lon="7.700508300">
  <ele>35.000000</ele>
<time>2009-04-12T14:47:19Z</time>
</trkpt>
<trkpt lat="51.980396600" lon="7.700644100">
  <ele>28.000000</ele>
<time>2009-04-12T14:47:28Z</time>
</trkpt>
<trkpt lat="51.980781900" lon="7.700961900">
  <ele>27.000000</ele>
<time>2009-04-12T14:47:38Z</time>
</trkpt>
<trkpt lat="51.980889600" lon="7.701090400">
  <ele>26.000000</ele>
<time>2009-04-12T14:47:42Z</time>
</trkpt>
<trkpt lat="51.981214200" lon="7.701005600">
  <ele>30.000000</ele>
<time>2009-04-12T14:47:50Z</time>
</trkpt>
<trkpt lat="51.981355200" lon="7.700600000">
  <ele>31.000000</ele>
<time>2009-04-12T14:47:56Z</time>
</trkpt>
<trkpt lat="51.981939100" lon="7.699524500">
  <ele>37.000000</ele>
<time>2009-04-12T14:48:16Z</time>
</trkpt>
<trkpt lat="51.981930900" lon="7.699384500">
  <ele>41.000000</ele>
<time>2009-04-12T14:48:20Z</time>
</trkpt>
<trkpt lat="51.981833000" lon="7.699263100">
  <ele>45.000000</ele>
<time>2009-04-12T14:48:24Z</time>
</trkpt>
<trkpt lat="51.980953000" lon="7.698643400">
  <ele>45.000000</ele>
<time>2009-04-12T14:48:42Z</time>
</trkpt>
<trkpt lat="51.980823700" lon="7.698454700">
  <ele>44.000000</ele>
<time>2009-04-12T14:48:47Z</time>
</trkpt>
<trkpt lat="51.981191200" lon="7.697856500">
  <ele>45.000000</ele>
<time>2009-04-12T14:49:04Z</time>
</trkpt>
<trkpt lat="51.981363100" lon="7.697181200">
  <ele>51.000000</ele>
<time>2009-04-12T14:49:15Z</time>
</trkpt>
<trkpt lat="51.981490600" lon="7.694566700">
  <ele>54.000000</ele>
<time>2009-04-12T14:49:48Z</time>
</trkpt>
<trkpt lat="51.981625200" lon="7.694270600">
  <ele>56.000000</ele>
<time>2009-04-12T14:49:54Z</time>
</trkpt>
<trkpt lat="51.981692400" lon="7.694216800">
  <ele>57.000000</ele>
<time>2009-04-12T14:49:56Z</time>
</trkpt>
<trkpt lat="51.982132700" lon="7.694075300">
  <ele>55.000000</ele>
<time>2009-04-12T14:50:07Z</time>
</trkpt>
<trkpt lat="51.982751600" lon="7.693685500">
  <ele>50.000000</ele>
<time>2009-04-12T14:50:19Z</time>
</trkpt>
<trkpt lat="51.983063100" lon="7.693283600">
  <ele>44.000000</ele>
<time>2009-04-12T14:50:25Z</time>
</trkpt>
<trkpt lat="51.983335500" lon="7.693059300">
  <ele>41.000000</ele>
<time>2009-04-12T14:50:30Z</time>
</trkpt>
<trkpt lat="51.983624900" lon="7.693082600">
  <ele>40.000000</ele>
<time>2009-04-12T14:50:35Z</time>
</trkpt>
<trkpt lat="51.984271600" lon="7.693313100">
  <ele>37.000000</ele>
<time>2009-04-12T14:50:51Z</time>
</trkpt>
<trkpt lat="51.984328600" lon="7.693213300">
  <ele>36.000000</ele>
<time>2009-04-12T14:50:56Z</time>
</trkpt>
<trkpt lat="51.984222200" lon="7.692405400">
  <ele>37.000000</ele>
<time>2009-04-12T14:51:06Z</time>
</trkpt>
<trkpt lat="51.984224100" lon="7.691817100">
  <ele>38.000000</ele>
<time>2009-04-12T14:51:15Z</time>
</trkpt>
<trkpt lat="51.984247100" lon="7.691740400">
  <ele>38.000000</ele>
<time>2009-04-12T14:51:16Z</time>
</trkpt>
<trkpt lat="51.984478500" lon="7.691474200">
  <ele>40.000000</ele>
<time>2009-04-12T14:51:22Z</time>
</trkpt>
<trkpt lat="51.985616200" lon="7.690978500">
  <ele>40.000000</ele>
<time>2009-04-12T14:53:04Z</time>
</trkpt>
<trkpt lat="51.985648900" lon="7.690928200">
  <ele>40.000000</ele>
<time>2009-04-12T14:53:38Z</time>
</trkpt>
<trkpt lat="51.985918600" lon="7.690794400">
  <ele>41.000000</ele>
<time>2009-04-12T14:53:49Z</time>
</trkpt>
<trkpt lat="51.986213600" lon="7.690015900">
  <ele>43.000000</ele>
<time>2009-04-12T14:54:03Z</time>
</trkpt>
<trkpt lat="51.986438000" lon="7.690241600">
  <ele>42.000000</ele>
<time>2009-04-12T14:54:11Z</time>
</trkpt>
<trkpt lat="51.986755200" lon="7.691257300">
  <ele>40.000000</ele>
<time>2009-04-12T14:54:25Z</time>
</trkpt>
<trkpt lat="51.986779100" lon="7.691404700">
  <ele>40.000000</ele>
<time>2009-04-12T14:54:27Z</time>
</trkpt>
<trkpt lat="51.986914500" lon="7.691885500">
  <ele>35.000000</ele>
<time>2009-04-12T14:54:33Z</time>
</trkpt>
<trkpt lat="51.987101900" lon="7.692336400">
  <ele>31.000000</ele>
<time>2009-04-12T14:54:39Z</time>
</trkpt>
<trkpt lat="51.989175400" lon="7.695222000">
  <ele>29.000000</ele>
<time>2009-04-12T14:55:20Z</time>
</trkpt>
<trkpt lat="51.989289900" lon="7.695321600">
  <ele>30.000000</ele>
<time>2009-04-12T14:55:24Z</time>
</trkpt>
<trkpt lat="51.990129600" lon="7.692138400">
  <ele>39.000000</ele>
<time>2009-04-12T14:56:11Z</time>
</trkpt>
<trkpt lat="51.990259800" lon="7.692099000">
  <ele>39.000000</ele>
<time>2009-04-12T14:56:15Z</time>
</trkpt>
<trkpt lat="51.991728700" lon="7.692925600">
  <ele>44.000000</ele>
<time>2009-04-12T14:56:51Z</time>
</trkpt>
<trkpt lat="51.991928000" lon="7.692901000">
  <ele>44.000000</ele>
<time>2009-04-12T14:56:56Z</time>
</trkpt>
<trkpt lat="51.993825500" lon="7.691705400">
  <ele>42.000000</ele>
<time>2009-04-12T14:57:41Z</time>
</trkpt>
<trkpt lat="51.994314600" lon="7.692620500">
  <ele>38.000000</ele>
<time>2009-04-12T14:58:03Z</time>
</trkpt>
<trkpt lat="51.994748400" lon="7.693021700">
  <ele>36.000000</ele>
<time>2009-04-12T14:58:12Z</time>
</trkpt>
<trkpt lat="51.995012900" lon="7.693133100">
  <ele>37.000000</ele>
<time>2009-04-12T14:58:18Z</time>
</trkpt>
<trkpt lat="51.995081300" lon="7.693230500">
  <ele>39.000000</ele>
<time>2009-04-12T14:58:22Z</time>
</trkpt>
<trkpt lat="51.995209000" lon="7.693300800">
  <ele>40.000000</ele>
<time>2009-04-12T14:58:57Z</time>
</trkpt>
<trkpt lat="51.996305300" lon="7.692364300">
  <ele>48.000000</ele>
<time>2009-04-12T15:04:04Z</time>
</trkpt>
<trkpt lat="51.996316000" lon="7.692213300">
  <ele>47.000000</ele>
<time>2009-04-12T15:04:19Z</time>
</trkpt>
<trkpt lat="51.996387500" lon="7.692216700">
  <ele>47.000000</ele>
<time>2009-04-12T15:05:28Z</time>
</trkpt>
<trkpt lat="51.996451300" lon="7.693136500">
  <ele>40.000000</ele>
<time>2009-04-12T15:05:43Z</time>
</trkpt>
<trkpt lat="51.996600600" lon="7.693476500">
  <ele>36.000000</ele>
<time>2009-04-12T15:05:47Z</time>
</trkpt>
<trkpt lat="51.996731200" lon="7.693591100">
  <ele>35.000000</ele>
<time>2009-04-12T15:05:49Z</time>
</trkpt>
<trkpt lat="51.997563100" lon="7.695498700">
  <ele>34.000000</ele>
<time>2009-04-12T15:06:09Z</time>
</trkpt>
<trkpt lat="51.997746400" lon="7.696804100">
  <ele>35.000000</ele>
<time>2009-04-12T15:06:23Z</time>
</trkpt>
<trkpt lat="51.997625200" lon="7.698050300">
  <ele>37.000000</ele>
<time>2009-04-12T15:06:39Z</time>
</trkpt>
<trkpt lat="51.997623900" lon="7.698279400">
  <ele>37.000000</ele>
<time>2009-04-12T15:06:42Z</time>
</trkpt>
<trkpt lat="51.997644200" lon="7.698431600">
  <ele>37.000000</ele>
<time>2009-04-12T15:06:44Z</time>
</trkpt>
<trkpt lat="51.999812700" lon="7.704247200">
  <ele>41.000000</ele>
<time>2009-04-12T15:08:17Z</time>
</trkpt>
<trkpt lat="51.999827800" lon="7.704630300">
  <ele>42.000000</ele>
<time>2009-04-12T15:08:22Z</time>
</trkpt>
<trkpt lat="51.999811400" lon="7.704973500">
  <ele>43.000000</ele>
<time>2009-04-12T15:08:26Z</time>
</trkpt>
<trkpt lat="51.999082000" lon="7.709913000">
  <ele>40.000000</ele>
<time>2009-04-12T15:09:27Z</time>
</trkpt>
<trkpt lat="51.999081000" lon="7.712128600">
  <ele>43.000000</ele>
<time>2009-04-12T15:09:54Z</time>
</trkpt>
<trkpt lat="51.998649700" lon="7.716496100">
  <ele>40.000000</ele>
<time>2009-04-12T15:10:48Z</time>
</trkpt>
<trkpt lat="51.998788300" lon="7.716562000">
  <ele>41.000000</ele>
<time>2009-04-12T15:10:52Z</time>
</trkpt>
<trkpt lat="51.999017600" lon="7.716514000">
  <ele>41.000000</ele>
<time>2009-04-12T15:10:57Z</time>
</trkpt>
<trkpt lat="51.999259500" lon="7.716565600">
  <ele>41.000000</ele>
<time>2009-04-12T15:11:02Z</time>
</trkpt>
<trkpt lat="51.999391900" lon="7.716666400">
  <ele>41.000000</ele>
<time>2009-04-12T15:11:05Z</time>
</trkpt>
<trkpt lat="51.999587800" lon="7.717021000">
  <ele>40.000000</ele>
<time>2009-04-12T15:11:10Z</time>
</trkpt>
<trkpt lat="52.000079500" lon="7.719391100">
  <ele>35.000000</ele>
<time>2009-04-12T15:11:36Z</time>
</trkpt>
<trkpt lat="52.000210700" lon="7.719693400">
  <ele>36.000000</ele>
<time>2009-04-12T15:11:40Z</time>
</trkpt>
<trkpt lat="52.001559000" lon="7.721368900">
  <ele>39.000000</ele>
<time>2009-04-12T15:12:10Z</time>
</trkpt>
<trkpt lat="52.001839200" lon="7.721443900">
  <ele>38.000000</ele>
<time>2009-04-12T15:12:16Z</time>
</trkpt>
<trkpt lat="52.003442000" lon="7.721147900">
  <ele>38.000000</ele>
<time>2009-04-12T15:12:46Z</time>
</trkpt>
<trkpt lat="52.003634200" lon="7.721242700">
  <ele>38.000000</ele>
<time>2009-04-12T15:12:50Z</time>
</trkpt>
<trkpt lat="52.010592800" lon="7.727271900">
  <ele>38.000000</ele>
<time>2009-04-12T15:15:10Z</time>
</trkpt>
<trkpt lat="52.010831900" lon="7.727223000">
  <ele>39.000000</ele>
<time>2009-04-12T15:15:16Z</time>
</trkpt>
<trkpt lat="52.010873100" lon="7.727113700">
  <ele>39.000000</ele>
<time>2009-04-12T15:15:18Z</time>
</trkpt>
<trkpt lat="52.011186600" lon="7.726914300">
  <ele>38.000000</ele>
<time>2009-04-12T15:15:27Z</time>
</trkpt>
<trkpt lat="52.012055100" lon="7.727245000">
  <ele>38.000000</ele>
<time>2009-04-12T15:15:47Z</time>
</trkpt>
<trkpt lat="52.012352200" lon="7.727133500">
  <ele>39.000000</ele>
<time>2009-04-12T15:17:47Z</time>
</trkpt>
<trkpt lat="52.014272200" lon="7.724727300">
  <ele>44.000000</ele>
<time>2009-04-12T15:18:34Z</time>
</trkpt>
<trkpt lat="52.014535300" lon="7.724641300">
  <ele>43.000000</ele>
<time>2009-04-12T15:18:41Z</time>
</trkpt>
<trkpt lat="52.014842100" lon="7.725212300">
  <ele>43.000000</ele>
<time>2009-04-12T15:18:52Z</time>
</trkpt>
<trkpt lat="52.015961700" lon="7.726437400">
  <ele>39.000000</ele>
<time>2009-04-12T15:19:13Z</time>
</trkpt>
<trkpt lat="52.016134000" lon="7.726492900">
  <ele>40.000000</ele>
<time>2009-04-12T15:19:16Z</time>
</trkpt>
<trkpt lat="52.017568400" lon="7.726043700">
  <ele>40.000000</ele>
<time>2009-04-12T15:19:42Z</time>
</trkpt>
<trkpt lat="52.017691300" lon="7.726045000">
  <ele>41.000000</ele>
<time>2009-04-12T15:19:45Z</time>
</trkpt>
<trkpt lat="52.018715500" lon="7.725705600">
  <ele>43.000000</ele>
<time>2009-04-12T15:20:11Z</time>
</trkpt>
<trkpt lat="52.018748600" lon="7.725604900">
  <ele>45.000000</ele>
<time>2009-04-12T15:20:13Z</time>
</trkpt>
<trkpt lat="52.018991400" lon="7.725556500">
  <ele>42.000000</ele>
<time>2009-04-12T15:20:18Z</time>
</trkpt>
<trkpt lat="52.019718000" lon="7.725619400">
  <ele>34.000000</ele>
<time>2009-04-12T15:20:29Z</time>
</trkpt>
<trkpt lat="52.019924000" lon="7.725776300">
  <ele>33.000000</ele>
<time>2009-04-12T15:20:33Z</time>
</trkpt>
<trkpt lat="52.020026900" lon="7.725889400">
  <ele>32.000000</ele>
<time>2009-04-12T15:20:35Z</time>
</trkpt>
<trkpt lat="52.020144700" lon="7.726170800">
  <ele>32.000000</ele>
<time>2009-04-12T15:20:39Z</time>
</trkpt>
<trkpt lat="52.020212100" lon="7.726487200">
  <ele>32.000000</ele>
<time>2009-04-12T15:20:43Z</time>
</trkpt>
<trkpt lat="52.020290600" lon="7.726638000">
  <ele>34.000000</ele>
<time>2009-04-12T15:20:50Z</time>
</trkpt>
<trkpt lat="52.020388600" lon="7.726560600">
  <ele>35.000000</ele>
<time>2009-04-12T15:21:21Z</time>
</trkpt>
<trkpt lat="52.020327900" lon="7.726614400">
  <ele>33.000000</ele>
<time>2009-04-12T15:25:56Z</time>
</trkpt>
<trkpt lat="52.020358900" lon="7.726841900">
  <ele>34.000000</ele>
<time>2009-04-12T15:26:05Z</time>
</trkpt>
<trkpt lat="52.020587800" lon="7.727170600">
  <ele>33.000000</ele>
<time>2009-04-12T15:26:18Z</time>
</trkpt>
<trkpt lat="52.020643500" lon="7.727147400">
  <ele>34.000000</ele>
<time>2009-04-12T15:27:15Z</time>
</trkpt>
<trkpt lat="52.020713000" lon="7.727257300">
  <ele>32.000000</ele>
<time>2009-04-12T15:28:17Z</time>
</trkpt>
<trkpt lat="52.020938700" lon="7.727352600">
  <ele>29.000000</ele>
<time>2009-04-12T15:28:34Z</time>
</trkpt>
<trkpt lat="52.021349200" lon="7.727854500">
  <ele>31.000000</ele>
<time>2009-04-12T15:28:48Z</time>
</trkpt>
<trkpt lat="52.021574600" lon="7.728238500">
  <ele>34.000000</ele>
<time>2009-04-12T15:28:57Z</time>
</trkpt>
<trkpt lat="52.022004300" lon="7.730088200">
  <ele>31.000000</ele>
<time>2009-04-12T15:29:23Z</time>
</trkpt>
<trkpt lat="52.022186400" lon="7.731543800">
  <ele>34.000000</ele>
<time>2009-04-12T15:29:49Z</time>
</trkpt>
<trkpt lat="52.021735078" lon="7.731461068">
  <ele>53.000000</ele>
<time>2009-04-12T15:33:39Z</time>
</trkpt>
<trkpt lat="52.016853000" lon="7.736078400">
  <ele>31.000000</ele>
<time>2009-04-12T15:35:36Z</time>
</trkpt>
<trkpt lat="52.016848700" lon="7.736292100">
  <ele>32.000000</ele>
<time>2009-04-12T15:35:41Z</time>
</trkpt>
<trkpt lat="52.019675800" lon="7.738855800">
  <ele>36.000000</ele>
<time>2009-04-12T15:36:46Z</time>
</trkpt>
<trkpt lat="52.020548700" lon="7.740370700">
  <ele>41.000000</ele>
<time>2009-04-12T15:37:14Z</time>
</trkpt>
<trkpt lat="52.021835900" lon="7.743835500">
  <ele>40.000000</ele>
<time>2009-04-12T15:38:12Z</time>
</trkpt>
<trkpt lat="52.021956600" lon="7.744707000">
  <ele>39.000000</ele>
<time>2009-04-12T15:38:26Z</time>
</trkpt>
<trkpt lat="52.022345100" lon="7.745794500">
  <ele>40.000000</ele>
<time>2009-04-12T15:38:43Z</time>
</trkpt>
<trkpt lat="52.022479100" lon="7.745993700">
  <ele>39.000000</ele>
<time>2009-04-12T15:38:47Z</time>
</trkpt>
<trkpt lat="52.023565600" lon="7.746755400">
  <ele>39.000000</ele>
<time>2009-04-12T15:39:09Z</time>
</trkpt>
<trkpt lat="52.024024300" lon="7.747269500">
  <ele>39.000000</ele>
<time>2009-04-12T15:39:19Z</time>
</trkpt>
<trkpt lat="52.024204700" lon="7.747372400">
  <ele>40.000000</ele>
<time>2009-04-12T15:39:23Z</time>
</trkpt>
<trkpt lat="52.024772400" lon="7.747458100">
  <ele>39.000000</ele>
<time>2009-04-12T15:39:34Z</time>
</trkpt>
<trkpt lat="52.024869500" lon="7.747499400">
  <ele>39.000000</ele>
<time>2009-04-12T15:39:36Z</time>
</trkpt>
<trkpt lat="52.026759200" lon="7.748874700">
  <ele>40.000000</ele>
<time>2009-04-12T15:40:20Z</time>
</trkpt>
<trkpt lat="52.027009400" lon="7.749284700">
  <ele>39.000000</ele>
<time>2009-04-12T15:40:28Z</time>
</trkpt>
<trkpt lat="52.027239900" lon="7.749516400">
  <ele>39.000000</ele>
<time>2009-04-12T15:40:34Z</time>
</trkpt>
<trkpt lat="52.027874600" lon="7.749878300">
  <ele>39.000000</ele>
<time>2009-04-12T15:40:50Z</time>
</trkpt>
<trkpt lat="52.027967000" lon="7.749906400">
  <ele>39.000000</ele>
<time>2009-04-12T15:40:52Z</time>
</trkpt>
<trkpt lat="52.028097500" lon="7.749910800">
  <ele>40.000000</ele>
<time>2009-04-12T15:40:55Z</time>
</trkpt>
<trkpt lat="52.028584600" lon="7.749745600">
  <ele>42.000000</ele>
<time>2009-04-12T15:41:19Z</time>
</trkpt>
<trkpt lat="52.028909400" lon="7.750185400">
  <ele>43.000000</ele>
<time>2009-04-12T15:42:11Z</time>
</trkpt>
<trkpt lat="52.028927400" lon="7.750392600">
  <ele>42.000000</ele>
<time>2009-04-12T15:42:17Z</time>
</trkpt>
<trkpt lat="52.028909800" lon="7.750882000">
  <ele>41.000000</ele>
<time>2009-04-12T15:42:28Z</time>
</trkpt>
<trkpt lat="52.028571200" lon="7.750788200">
  <ele>44.000000</ele>
<time>2009-04-12T15:42:56Z</time>
</trkpt>
<trkpt lat="52.028909800" lon="7.750882000">
  <ele>46.000000</ele>
<time>2009-04-12T16:07:48Z</time>
</trkpt>
<trkpt lat="52.028810656" lon="7.751406273">
  <ele>45.000000</ele>
<time>2009-04-12T16:07:59Z</time>
</trkpt>
<trkpt lat="52.028043301" lon="7.751026570">
  <ele>52.000000</ele>
<time>2009-04-12T16:08:04Z</time>
</trkpt>
<trkpt lat="52.027729748" lon="7.752165462">
  <ele>52.000000</ele>
<time>2009-04-12T16:08:09Z</time>
</trkpt>
<trkpt lat="52.027743913" lon="7.753025730">
  <ele>52.000000</ele>
<time>2009-04-12T16:08:13Z</time>
</trkpt>
<trkpt lat="52.027454597" lon="7.753742980">
  <ele>52.000000</ele>
<time>2009-04-12T16:08:16Z</time>
</trkpt>
<trkpt lat="52.027347324" lon="7.754307063">
  <ele>52.000000</ele>
<time>2009-04-12T16:08:18Z</time>
</trkpt>
<trkpt lat="52.026252806" lon="7.753564818">
  <ele>51.000000</ele>
<time>2009-04-12T16:08:37Z</time>
</trkpt>
<trkpt lat="52.025600722" lon="7.753291605">
  <ele>51.000000</ele>
<time>2009-04-12T16:09:16Z</time>
</trkpt>
<trkpt lat="52.024317093" lon="7.753780497">
  <ele>51.000000</ele>
<time>2009-04-12T16:10:32Z</time>
</trkpt>
<trkpt lat="52.023001242" lon="7.752811113">
  <ele>51.000000</ele>
<time>2009-04-12T16:13:06Z</time>
</trkpt>
<trkpt lat="52.022697332" lon="7.752697241">
  <ele>46.000000</ele>
<time>2009-04-12T16:18:13Z</time>
</trkpt>
<trkpt lat="52.022503300" lon="7.752762500">
  <ele>45.000000</ele>
<time>2009-04-12T16:18:18Z</time>
</trkpt>
<trkpt lat="52.022140200" lon="7.753420400">
  <ele>42.000000</ele>
<time>2009-04-12T16:18:26Z</time>
</trkpt>
<trkpt lat="52.021774600" lon="7.753761500">
  <ele>41.000000</ele>
<time>2009-04-12T16:18:33Z</time>
</trkpt>
<trkpt lat="52.020464600" lon="7.755745700">
  <ele>40.000000</ele>
<time>2009-04-12T16:19:01Z</time>
</trkpt>
<trkpt lat="52.019905400" lon="7.756367600">
  <ele>41.000000</ele>
<time>2009-04-12T16:19:11Z</time>
</trkpt>
<trkpt lat="52.019497700" lon="7.757270700">
  <ele>41.000000</ele>
<time>2009-04-12T16:19:21Z</time>
</trkpt>
<trkpt lat="52.019142400" lon="7.760038200">
  <ele>38.000000</ele>
<time>2009-04-12T16:19:47Z</time>
</trkpt>
<trkpt lat="52.019006400" lon="7.760493600">
  <ele>37.000000</ele>
<time>2009-04-12T16:19:52Z</time>
</trkpt>
<trkpt lat="52.018669700" lon="7.761002000">
  <ele>37.000000</ele>
<time>2009-04-12T16:19:59Z</time>
</trkpt>
<trkpt lat="52.018487800" lon="7.761163900">
  <ele>36.000000</ele>
<time>2009-04-12T16:20:02Z</time>
</trkpt>
<trkpt lat="52.018217600" lon="7.761319500">
  <ele>36.000000</ele>
<time>2009-04-12T16:20:06Z</time>
</trkpt>
<trkpt lat="52.017125300" lon="7.761342300">
  <ele>41.000000</ele>
<time>2009-04-12T16:20:32Z</time>
</trkpt>
<trkpt lat="52.017362900" lon="7.761344800">
  <ele>43.000000</ele>
<time>2009-04-12T16:20:48Z</time>
</trkpt>
<trkpt lat="52.017007500" lon="7.761402500">
  <ele>41.000000</ele>
<time>2009-04-12T16:21:26Z</time>
</trkpt>
<trkpt lat="52.016672600" lon="7.761605400">
  <ele>39.000000</ele>
<time>2009-04-12T16:21:36Z</time>
</trkpt>
<trkpt lat="52.016350500" lon="7.761898200">
  <ele>41.000000</ele>
<time>2009-04-12T16:22:29Z</time>
</trkpt>
<trkpt lat="52.016248200" lon="7.761916900">
  <ele>41.000000</ele>
<time>2009-04-12T16:22:44Z</time>
</trkpt>
<trkpt lat="52.015752700" lon="7.762926700">
  <ele>38.000000</ele>
<time>2009-04-12T16:23:20Z</time>
</trkpt>
<trkpt lat="52.015537800" lon="7.763161400">
  <ele>41.000000</ele>
<time>2009-04-12T16:23:25Z</time>
</trkpt>
<trkpt lat="52.013124100" lon="7.763904900">
  <ele>42.000000</ele>
<time>2009-04-12T16:24:08Z</time>
</trkpt>
<trkpt lat="52.012923600" lon="7.764276800">
  <ele>43.000000</ele>
<time>2009-04-12T16:24:15Z</time>
</trkpt>
<trkpt lat="52.012990600" lon="7.764886400">
  <ele>44.000000</ele>
<time>2009-04-12T16:24:24Z</time>
</trkpt>
<trkpt lat="52.013050800" lon="7.765147600">
  <ele>46.000000</ele>
<time>2009-04-12T16:24:28Z</time>
</trkpt>
<trkpt lat="52.013057300" lon="7.765551100">
  <ele>45.000000</ele>
<time>2009-04-12T16:24:32Z</time>
</trkpt>
<trkpt lat="52.013120900" lon="7.765860900">
  <ele>47.000000</ele>
<time>2009-04-12T16:24:36Z</time>
</trkpt>
<trkpt lat="52.013011500" lon="7.766660200">
  <ele>41.000000</ele>
<time>2009-04-12T16:24:45Z</time>
</trkpt>
<trkpt lat="52.011714800" lon="7.766611300">
  <ele>34.000000</ele>
<time>2009-04-12T16:25:09Z</time>
</trkpt>
<trkpt lat="52.011047900" lon="7.766999900">
  <ele>40.000000</ele>
<time>2009-04-12T16:25:21Z</time>
</trkpt>
<trkpt lat="52.010710000" lon="7.766990700">
  <ele>38.000000</ele>
<time>2009-04-12T16:25:27Z</time>
</trkpt>
<trkpt lat="52.010627900" lon="7.766954800">
  <ele>39.000000</ele>
<time>2009-04-12T16:25:29Z</time>
</trkpt>
<trkpt lat="52.010230700" lon="7.767191100">
  <ele>41.000000</ele>
<time>2009-04-12T16:25:39Z</time>
</trkpt>
<trkpt lat="52.009375600" lon="7.767984600">
  <ele>32.000000</ele>
<time>2009-04-12T16:26:43Z</time>
</trkpt>
<trkpt lat="52.007989300" lon="7.768007700">
  <ele>39.000000</ele>
<time>2009-04-12T16:27:43Z</time>
</trkpt>
<trkpt lat="52.007868800" lon="7.768061100">
  <ele>40.000000</ele>
<time>2009-04-12T16:27:59Z</time>
</trkpt>
<trkpt lat="52.004341300" lon="7.768724800">
  <ele>38.000000</ele>
<time>2009-04-12T16:29:08Z</time>
</trkpt>
<trkpt lat="52.004045200" lon="7.768459300">
  <ele>35.000000</ele>
<time>2009-04-12T16:29:16Z</time>
</trkpt>
<trkpt lat="52.003716100" lon="7.766758000">
  <ele>39.000000</ele>
<time>2009-04-12T16:33:08Z</time>
</trkpt>
<trkpt lat="52.003479500" lon="7.766207200">
  <ele>41.000000</ele>
<time>2009-04-12T16:33:17Z</time>
</trkpt>
<trkpt lat="52.003393400" lon="7.766126300">
  <ele>42.000000</ele>
<time>2009-04-12T16:33:19Z</time>
</trkpt>
<trkpt lat="52.000017600" lon="7.764061400">
  <ele>41.000000</ele>
<time>2009-04-12T16:34:26Z</time>
</trkpt>
<trkpt lat="51.997804600" lon="7.762098500">
  <ele>42.000000</ele>
<time>2009-04-12T16:35:11Z</time>
</trkpt>
<trkpt lat="51.997941700" lon="7.761380000">
  <ele>42.000000</ele>
<time>2009-04-12T16:35:24Z</time>
</trkpt>
<trkpt lat="51.998084600" lon="7.759537600">
  <ele>43.000000</ele>
<time>2009-04-12T16:35:46Z</time>
</trkpt>
<trkpt lat="51.998052700" lon="7.758800100">
  <ele>41.000000</ele>
<time>2009-04-12T16:35:55Z</time>
</trkpt>
<trkpt lat="51.998222500" lon="7.757022800">
  <ele>39.000000</ele>
<time>2009-04-12T16:36:15Z</time>
</trkpt>
<trkpt lat="51.998647200" lon="7.755325300">
  <ele>44.000000</ele>
<time>2009-04-12T16:36:39Z</time>
</trkpt>
<trkpt lat="51.998544400" lon="7.755233100">
  <ele>45.000000</ele>
<time>2009-04-12T16:37:03Z</time>
</trkpt>
<trkpt lat="51.995088200" lon="7.754467300">
  <ele>39.000000</ele>
<time>2009-04-12T16:38:08Z</time>
</trkpt>
<trkpt lat="51.994858400" lon="7.754353100">
  <ele>40.000000</ele>
<time>2009-04-12T16:38:12Z</time>
</trkpt>
<trkpt lat="51.994774200" lon="7.754282100">
  <ele>40.000000</ele>
<time>2009-04-12T16:38:14Z</time>
</trkpt>
<trkpt lat="51.988395400" lon="7.744651500">
  <ele>41.000000</ele>
<time>2009-04-12T16:40:56Z</time>
</trkpt>
<trkpt lat="51.988154200" lon="7.744518400">
  <ele>42.000000</ele>
<time>2009-04-12T16:41:00Z</time>
</trkpt>
<trkpt lat="51.987468200" lon="7.744557900">
  <ele>43.000000</ele>
<time>2009-04-12T16:41:12Z</time>
</trkpt>
<trkpt lat="51.987355100" lon="7.744532200">
  <ele>44.000000</ele>
<time>2009-04-12T16:41:14Z</time>
</trkpt>
<trkpt lat="51.986277500" lon="7.743862000">
  <ele>45.000000</ele>
<time>2009-04-12T16:41:34Z</time>
</trkpt>
<trkpt lat="51.984353800" lon="7.743176500">
  <ele>48.000000</ele>
<time>2009-04-12T16:42:15Z</time>
</trkpt>
<trkpt lat="51.984410500" lon="7.742976200">
  <ele>53.000000</ele>
<time>2009-04-12T16:42:52Z</time>
</trkpt>
<trkpt lat="51.989338000" lon="7.732626800">
  <ele>50.000000</ele>
<time>2009-04-12T16:45:08Z</time>
</trkpt>
<trkpt lat="51.989403400" lon="7.732422900">
  <ele>49.000000</ele>
<time>2009-04-12T16:45:10Z</time>
</trkpt>
<trkpt lat="51.989423500" lon="7.732257200">
  <ele>49.000000</ele>
<time>2009-04-12T16:45:12Z</time>
</trkpt>
<trkpt lat="51.986242400" lon="7.716417700">
  <ele>44.000000</ele>
<time>2009-04-12T16:47:56Z</time>
</trkpt>
<trkpt lat="51.985423700" lon="7.713580200">
  <ele>48.000000</ele>
<time>2009-04-12T16:48:26Z</time>
</trkpt>
<trkpt lat="51.985357500" lon="7.713392500">
  <ele>47.000000</ele>
<time>2009-04-12T16:48:28Z</time>
</trkpt>
<trkpt lat="51.985040100" lon="7.709018900">
  <ele>46.000000</ele>
<time>2009-04-12T16:49:12Z</time>
</trkpt>
<trkpt lat="51.984804000" lon="7.708680700">
  <ele>43.000000</ele>
<time>2009-04-12T16:49:18Z</time>
</trkpt>
<trkpt lat="51.984028400" lon="7.708334400">
  <ele>42.000000</ele>
<time>2009-04-12T16:49:31Z</time>
</trkpt>
<trkpt lat="51.983393500" lon="7.707825400">
  <ele>41.000000</ele>
<time>2009-04-12T16:49:42Z</time>
</trkpt>
<trkpt lat="51.983007200" lon="7.707386500">
  <ele>41.000000</ele>
<time>2009-04-12T16:49:50Z</time>
</trkpt>
<trkpt lat="51.981988100" lon="7.705442000">
  <ele>35.000000</ele>
<time>2009-04-12T16:50:17Z</time>
</trkpt>
<trkpt lat="51.981630600" lon="7.704245300">
  <ele>33.000000</ele>
<time>2009-04-12T16:50:33Z</time>
</trkpt>
<trkpt lat="51.981520800" lon="7.703481600">
  <ele>36.000000</ele>
<time>2009-04-12T16:50:43Z</time>
</trkpt>
<trkpt lat="51.981517400" lon="7.702967400">
  <ele>36.000000</ele>
<time>2009-04-12T16:50:52Z</time>
</trkpt>
<trkpt lat="51.981318200" lon="7.702891700">
  <ele>36.000000</ele>
<time>2009-04-12T16:51:00Z</time>
</trkpt>
<trkpt lat="51.980141100" lon="7.703361500">
  <ele>43.000000</ele>
<time>2009-04-12T16:51:44Z</time>
</trkpt>
<trkpt lat="51.980101800" lon="7.703402400">
  <ele>44.000000</ele>
<time>2009-04-12T16:52:12Z</time>
</trkpt>
<trkpt lat="51.976921300" lon="7.704805100">
  <ele>47.000000</ele>
<time>2009-04-12T16:53:14Z</time>
</trkpt>
<trkpt lat="51.976541700" lon="7.704598600">
  <ele>45.000000</ele>
<time>2009-04-12T16:53:21Z</time>
</trkpt>
<trkpt lat="51.974781800" lon="7.701278700">
  <ele>42.000000</ele>
<time>2009-04-12T16:54:12Z</time>
</trkpt>
<trkpt lat="51.974349700" lon="7.699853500">
  <ele>40.000000</ele>
<time>2009-04-12T16:54:49Z</time>
</trkpt>
<trkpt lat="51.974224700" lon="7.699234100">
  <ele>40.000000</ele>
<time>2009-04-12T16:54:57Z</time>
</trkpt>
<trkpt lat="51.974164900" lon="7.698622200">
  <ele>40.000000</ele>
<time>2009-04-12T16:55:04Z</time>
</trkpt>
<trkpt lat="51.974077300" lon="7.698310400">
  <ele>38.000000</ele>
<time>2009-04-12T16:55:08Z</time>
</trkpt>
<trkpt lat="51.973640600" lon="7.693643800">
  <ele>47.000000</ele>
<time>2009-04-12T16:56:12Z</time>
</trkpt>
<trkpt lat="51.973318100" lon="7.693721100">
  <ele>44.000000</ele>
<time>2009-04-12T16:56:37Z</time>
</trkpt>
<trkpt lat="51.967230000" lon="7.698046400">
  <ele>44.000000</ele>
<time>2009-04-12T16:58:29Z</time>
</trkpt>
<trkpt lat="51.965863400" lon="7.699673800">
  <ele>43.000000</ele>
<time>2009-04-12T16:58:55Z</time>
</trkpt>
<trkpt lat="51.964882700" lon="7.700528900">
  <ele>44.000000</ele>
<time>2009-04-12T16:59:12Z</time>
</trkpt>
<trkpt lat="51.964611100" lon="7.700629600">
  <ele>44.000000</ele>
<time>2009-04-12T16:59:16Z</time>
</trkpt>
<trkpt lat="51.963347800" lon="7.700595000">
  <ele>43.000000</ele>
<time>2009-04-12T16:59:34Z</time>
</trkpt>
<trkpt lat="51.962715300" lon="7.700035900">
  <ele>44.000000</ele>
<time>2009-04-12T16:59:46Z</time>
</trkpt>
<trkpt lat="51.962672700" lon="7.699982400">
  <ele>43.000000</ele>
<time>2009-04-12T16:59:47Z</time>
</trkpt>
<trkpt lat="51.962477000" lon="7.699553100">
  <ele>44.000000</ele>
<time>2009-04-12T16:59:53Z</time>
</trkpt>
<trkpt lat="51.962410400" lon="7.699199400">
  <ele>44.000000</ele>
<time>2009-04-12T16:59:57Z</time>
</trkpt>
<trkpt lat="51.962477500" lon="7.695813000">
  <ele>44.000000</ele>
<time>2009-04-12T17:00:36Z</time>
</trkpt>
<trkpt lat="51.962065800" lon="7.691790900">
  <ele>53.000000</ele>
<time>2009-04-12T17:01:26Z</time>
</trkpt>
<trkpt lat="51.962074700" lon="7.691488100">
  <ele>57.000000</ele>
<time>2009-04-12T17:01:30Z</time>
</trkpt>
<trkpt lat="51.961986000" lon="7.691107900">
  <ele>55.000000</ele>
<time>2009-04-12T17:01:34Z</time>
</trkpt>
<trkpt lat="51.961874800" lon="7.690244000">
  <ele>49.000000</ele>
<time>2009-04-12T17:01:43Z</time>
</trkpt>
<trkpt lat="51.961929600" lon="7.689632100">
  <ele>50.000000</ele>
<time>2009-04-12T17:01:50Z</time>
</trkpt>
<trkpt lat="51.962639800" lon="7.687485600">
  <ele>49.000000</ele>
<time>2009-04-12T17:02:19Z</time>
</trkpt>
<trkpt lat="51.962752200" lon="7.686894400">
  <ele>51.000000</ele>
<time>2009-04-12T17:02:26Z</time>
</trkpt>
<trkpt lat="51.962757900" lon="7.686511100">
  <ele>48.000000</ele>
<time>2009-04-12T17:02:31Z</time>
</trkpt>
<trkpt lat="51.962719000" lon="7.686198700">
  <ele>45.000000</ele>
<time>2009-04-12T17:02:36Z</time>
</trkpt>
<trkpt lat="51.962423800" lon="7.685110000">
  <ele>30.000000</ele>
<time>2009-04-12T17:02:53Z</time>
</trkpt>
<trkpt lat="51.962398400" lon="7.684937600">
  <ele>32.000000</ele>
<time>2009-04-12T17:02:55Z</time>
</trkpt>
<trkpt lat="51.962411000" lon="7.684624500">
  <ele>38.000000</ele>
<time>2009-04-12T17:02:58Z</time>
</trkpt>
<trkpt lat="51.962345200" lon="7.684411400">
  <ele>33.000000</ele>
<time>2009-04-12T17:03:00Z</time>
</trkpt>
<trkpt lat="51.962360200" lon="7.684076000">
  <ele>38.000000</ele>
<time>2009-04-12T17:03:04Z</time>
</trkpt>
<trkpt lat="51.962277200" lon="7.683282400">
  <ele>42.000000</ele>
<time>2009-04-12T17:03:13Z</time>
</trkpt>
<trkpt lat="51.962315600" lon="7.682698800">
  <ele>60.000000</ele>
<time>2009-04-12T17:03:19Z</time>
</trkpt>
<trkpt lat="51.962222700" lon="7.682176900">
  <ele>55.000000</ele>
<time>2009-04-12T17:03:25Z</time>
</trkpt>
<trkpt lat="51.962187100" lon="7.681698000">
  <ele>55.000000</ele>
<time>2009-04-12T17:03:31Z</time>
</trkpt>
<trkpt lat="51.962059000" lon="7.681295900">
  <ele>48.000000</ele>
<time>2009-04-12T17:03:35Z</time>
</trkpt>
<trkpt lat="51.962027900" lon="7.681133800">
  <ele>47.000000</ele>
<time>2009-04-12T17:03:37Z</time>
</trkpt>
<trkpt lat="51.962021300" lon="7.680657100">
  <ele>55.000000</ele>
<time>2009-04-12T17:03:41Z</time>
</trkpt>
<trkpt lat="51.961929500" lon="7.680225700">
  <ele>51.000000</ele>
<time>2009-04-12T17:03:46Z</time>
</trkpt>
<trkpt lat="51.961607400" lon="7.677377600">
  <ele>63.000000</ele>
<time>2009-04-12T17:04:19Z</time>
</trkpt>
<trkpt lat="51.961350100" lon="7.676222200">
  <ele>45.000000</ele>
<time>2009-04-12T17:04:35Z</time>
</trkpt>
<trkpt lat="51.961220000" lon="7.670553700">
  <ele>66.000000</ele>
<time>2009-04-12T17:06:19Z</time>
</trkpt>
<trkpt lat="51.961259300" lon="7.670230200">
  <ele>62.000000</ele>
<time>2009-04-12T17:06:23Z</time>
</trkpt>
<trkpt lat="51.962601800" lon="7.667512300">
  <ele>60.000000</ele>
<time>2009-04-12T17:07:05Z</time>
</trkpt>
<trkpt lat="51.962822700" lon="7.666508700">
  <ele>56.000000</ele>
<time>2009-04-12T17:07:19Z</time>
</trkpt>
<trkpt lat="51.962891400" lon="7.665749300">
  <ele>63.000000</ele>
<time>2009-04-12T17:07:31Z</time>
</trkpt>
<trkpt lat="51.962815600" lon="7.660167200">
  <ele>53.000000</ele>
<time>2009-04-12T17:08:37Z</time>
</trkpt>
<trkpt lat="51.962516300" lon="7.659174400">
  <ele>53.000000</ele>
<time>2009-04-12T17:08:48Z</time>
</trkpt>
<trkpt lat="51.962385500" lon="7.654803700">
  <ele>56.000000</ele>
<time>2009-04-12T17:09:39Z</time>
</trkpt>
<trkpt lat="51.963158100" lon="7.651586000">
  <ele>60.000000</ele>
<time>2009-04-12T17:10:26Z</time>
</trkpt>
<trkpt lat="51.963163100" lon="7.651131400">
  <ele>66.000000</ele>
<time>2009-04-12T17:10:32Z</time>
</trkpt>
<trkpt lat="51.963080200" lon="7.650312500">
  <ele>64.000000</ele>
<time>2009-04-12T17:10:44Z</time>
</trkpt>
<trkpt lat="51.963163900" lon="7.649907600">
  <ele>63.000000</ele>
<time>2009-04-12T17:10:50Z</time>
</trkpt>
<trkpt lat="51.963243300" lon="7.649723600">
  <ele>60.000000</ele>
<time>2009-04-12T17:10:53Z</time>
</trkpt>
<trkpt lat="51.963245600" lon="7.649376700">
  <ele>57.000000</ele>
<time>2009-04-12T17:10:59Z</time>
</trkpt>
<trkpt lat="51.963069400" lon="7.648707300">
  <ele>67.000000</ele>
<time>2009-04-12T17:11:12Z</time>
</trkpt>
<trkpt lat="51.962893400" lon="7.648592900">
  <ele>64.000000</ele>
<time>2009-04-12T17:11:18Z</time>
</trkpt>
<trkpt lat="51.962729500" lon="7.648181300">
  <ele>58.000000</ele>
<time>2009-04-12T17:11:27Z</time>
</trkpt>
<trkpt lat="51.962083700" lon="7.644801500">
  <ele>78.000000</ele>
<time>2009-04-12T17:12:17Z</time>
</trkpt>
<trkpt lat="51.962050800" lon="7.644331500">
  <ele>85.000000</ele>
<time>2009-04-12T17:12:28Z</time>
</trkpt>
<trkpt lat="51.962161700" lon="7.643918300">
  <ele>78.000000</ele>
<time>2009-04-12T17:12:47Z</time>
</trkpt>
<trkpt lat="51.962020600" lon="7.643494600">
  <ele>81.000000</ele>
<time>2009-04-12T17:12:56Z</time>
</trkpt>
<trkpt lat="51.961810500" lon="7.641990200">
  <ele>82.000000</ele>
<time>2009-04-12T17:13:17Z</time>
</trkpt>
<trkpt lat="51.961767500" lon="7.641038900">
  <ele>83.000000</ele>
<time>2009-04-12T17:13:32Z</time>
</trkpt>
<trkpt lat="51.961709400" lon="7.640696600">
  <ele>80.000000</ele>
<time>2009-04-12T17:15:24Z</time>
</trkpt>
<trkpt lat="51.961818700" lon="7.636704100">
  <ele>92.000000</ele>
<time>2009-04-12T17:16:48Z</time>
</trkpt>
<trkpt lat="51.961941900" lon="7.636189000">
  <ele>77.000000</ele>
<time>2009-04-12T17:17:01Z</time>
</trkpt>
<trkpt lat="51.961977600" lon="7.635781600">
  <ele>74.000000</ele>
<time>2009-04-12T17:17:15Z</time>
</trkpt>
<trkpt lat="51.961953600" lon="7.635426800">
  <ele>71.000000</ele>
<time>2009-04-12T17:17:28Z</time>
</trkpt>
<trkpt lat="51.961575600" lon="7.634781000">
  <ele>68.000000</ele>
<time>2009-04-12T17:17:46Z</time>
</trkpt>
<trkpt lat="51.960908300" lon="7.634262900">
  <ele>68.000000</ele>
<time>2009-04-12T17:18:06Z</time>
</trkpt>
<trkpt lat="51.958190100" lon="7.630957600">
  <ele>67.000000</ele>
<time>2009-04-12T17:19:22Z</time>
</trkpt>
<trkpt lat="51.958088300" lon="7.630760200">
  <ele>67.000000</ele>
<time>2009-04-12T17:19:25Z</time>
</trkpt>
<trkpt lat="51.957789300" lon="7.630866800">
  <ele>65.000000</ele>
<time>2009-04-12T17:19:30Z</time>
</trkpt>
<trkpt lat="51.957573700" lon="7.631158200">
  <ele>60.000000</ele>
<time>2009-04-12T17:19:40Z</time>
</trkpt>
<trkpt lat="51.957079800" lon="7.633450400">
  <ele>53.000000</ele>
<time>2009-04-12T17:20:39Z</time>
</trkpt>
<trkpt lat="51.956770500" lon="7.634192100">
  <ele>52.000000</ele>
<time>2009-04-12T17:21:25Z</time>
</trkpt>
<trkpt lat="51.956739100" lon="7.634350000">
  <ele>53.000000</ele>
<time>2009-04-12T17:21:29Z</time>
</trkpt>
<trkpt lat="51.956614400" lon="7.634456000">
  <ele>60.000000</ele>
<time>2009-04-12T17:21:39Z</time>
</trkpt>
<trkpt lat="51.956593400" lon="7.634428900">
  <ele>64.000000</ele>
<time>2009-04-12T17:25:04Z</time>
<extensions>
</extensions>
</trkpt>
</trkseg>
</trk>
</gpx>
